Time;durP1;ratioP1;P1;durP2;ratioP2;P2;SDS_P1;SDS_P2;PMS_P1;PMS_P2;Temp;Humidity;BMP_temperature;BMP_pressure;BME280_temperature;BME280_humidity;BME280_pressure;Samples;Min_cycle;Max_cycle;Signal;HPM_P1;HPM_P2
2022/06/18 00:00:16;;;;;;;8.05;4.30;;;;;;;;;;6183412;23;20050;-83
2022/06/18 00:02:44;;;;;;;6.90;4.35;;;;;;;;;;6185225;23;20025;-85
2022/06/18 00:05:12;;;;;;;9.90;4.70;;;;;;;;;;6184637;23;20039;-84
2022/06/18 00:07:41;;;;;;;10.60;4.00;;;;;;;;;;6184427;23;20032;-83
2022/06/18 00:10:10;;;;;;;9.10;3.97;;;;;;;;;;6184479;23;20069;-84
2022/06/18 00:15:31;;;;;;;6.93;3.78;;;;;;;;;;6184422;23;20030;-84
2022/06/18 00:17:58;;;;;;;7.03;3.70;;;;;;;;;;6184240;23;20057;-85
2022/06/18 00:20:28;;;;;;;6.28;3.60;;;;;;;;;;6184983;23;20042;-84
2022/06/18 00:23:00;;;;;;;7.80;3.83;;;;;;;;;;6185600;23;20033;-83
2022/06/18 00:25:29;;;;;;;6.82;3.80;;;;;;;;;;6185249;23;20022;-84
2022/06/18 00:27:57;;;;;;;8.07;3.50;;;;;;;;;;6185480;23;20017;-85
2022/06/18 00:30:26;;;;;;;9.77;3.70;;;;;;;;;;6185601;23;20028;-85
2022/06/18 00:32:53;;;;;;;8.93;3.97;;;;;;;;;;6184909;23;20018;-84
2022/06/18 00:35:20;;;;;;;8.98;4.47;;;;;;;;;;6184637;23;20017;-84
2022/06/18 00:37:52;;;;;;;9.38;4.32;;;;;;;;;;6184595;23;20014;-84
2022/06/18 00:40:19;;;;;;;6.60;4.07;;;;;;;;;;6184327;23;20030;-84
2022/06/18 00:42:47;;;;;;;7.30;4.32;;;;;;;;;;6183209;23;20014;-83
2022/06/18 00:45:16;;;;;;;13.27;4.75;;;;;;;;;;6183307;23;20021;-84
2022/06/18 00:47:46;;;;;;;11.63;4.43;;;;;;;;;;6182230;23;20840;-83
2022/06/18 00:50:31;;;;;;;10.90;4.50;;;;;;;;;;6183335;23;20029;-84
2022/06/18 00:53:09;;;;;;;11.13;5.07;;;;;;;;;;6183394;23;20030;-84
2022/06/18 00:55:45;;;;;;;8.57;4.10;;;;;;;;;;6183655;23;19998;-85
2022/06/18 00:58:15;;;;;;;7.97;3.78;;;;;;;;;;6183282;23;20018;-84
2022/06/18 01:00:44;;;;;;;8.68;4.38;;;;;;;;;;6183087;23;20065;-84
2022/06/18 01:03:32;;;;;;;6.88;4.38;;;;;;;;;;6183784;23;20006;-83
2022/06/18 01:06:01;;;;;;;6.50;4.57;;;;;;;;;;6184357;23;20082;-83
2022/06/18 01:08:30;;;;;;;10.55;4.45;;;;;;;;;;6185692;23;20014;-83
2022/06/18 01:11:02;;;;;;;8.35;4.43;;;;;;;;;;6183980;23;20055;-84
2022/06/18 01:13:34;;;;;;;8.65;4.35;;;;;;;;;;6183296;23;20804;-82
2022/06/18 01:16:02;;;;;;;10.63;4.47;;;;;;;;;;6183038;23;20085;-85
2022/06/18 01:18:31;;;;;;;9.02;4.28;;;;;;;;;;6183484;23;20025;-82
2022/06/18 01:21:10;;;;;;;9.13;4.85;;;;;;;;;;6183167;23;20078;-83
2022/06/18 01:23:47;;;;;;;11.50;4.00;;;;;;;;;;6183846;23;20025;-83
2022/06/18 01:26:15;;;;;;;8.00;4.78;;;;;;;;;;6183678;23;20029;-85
2022/06/18 01:28:44;;;;;;;8.35;4.68;;;;;;;;;;6183889;23;20090;-84
2022/06/18 01:31:11;;;;;;;10.65;4.72;;;;;;;;;;6184053;23;20022;-83
2022/06/18 01:33:41;;;;;;;7.88;4.60;;;;;;;;;;6184202;23;20006;-84
2022/06/18 01:36:10;;;;;;;10.75;4.75;;;;;;;;;;6183547;23;20018;-83
2022/06/18 01:38:44;;;;;;;8.73;4.53;;;;;;;;;;6184344;23;20014;-84
2022/06/18 01:44:11;;;;;;;7.90;4.00;;;;;;;;;;6185499;23;20014;-84
2022/06/18 01:46:41;;;;;;;13.07;5.00;;;;;;;;;;6184457;23;20039;-83
2022/06/18 01:49:17;;;;;;;6.10;4.00;;;;;;;;;;6185152;23;20103;-83
2022/06/18 01:51:47;;;;;;;10.02;4.38;;;;;;;;;;6185043;23;20018;-84
2022/06/18 01:54:22;;;;;;;7.07;4.40;;;;;;;;;;6185817;23;20026;-84
2022/06/18 01:56:51;;;;;;;7.80;4.60;;;;;;;;;;6185282;23;20017;-84
2022/06/18 01:59:27;;;;;;;9.05;4.30;;;;;;;;;;6184935;23;20025;-84
2022/06/18 02:01:56;;;;;;;10.75;4.60;;;;;;;;;;6183697;23;20033;-83
2022/06/18 02:04:24;;;;;;;10.15;4.97;;;;;;;;;;6184210;23;20054;-83
2022/06/18 02:06:52;;;;;;;12.40;4.45;;;;;;;;;;6184554;23;20018;-84
2022/06/18 02:09:34;;;;;;;11.80;4.50;;;;;;;;;;6185314;23;20014;-83
2022/06/18 02:12:03;;;;;;;10.18;4.95;;;;;;;;;;6184983;23;20057;-84
2022/06/18 02:14:31;;;;;;;11.88;4.45;;;;;;;;;;6185233;23;20006;-84
2022/06/18 02:16:59;;;;;;;9.50;4.57;;;;;;;;;;6185380;23;20014;-84
2022/06/18 02:19:27;;;;;;;9.88;4.65;;;;;;;;;;6184747;23;20021;-84
2022/06/18 02:21:56;;;;;;;10.70;4.53;;;;;;;;;;6185175;23;20065;-84
2022/06/18 02:24:23;;;;;;;9.00;4.70;;;;;;;;;;6185129;23;20014;-84
2022/06/18 02:26:50;;;;;;;15.45;4.55;;;;;;;;;;6184972;23;20014;-83
2022/06/18 02:29:24;;;;;;;9.00;4.97;;;;;;;;;;6184847;23;20022;-84
2022/06/18 02:31:51;;;;;;;11.90;5.18;;;;;;;;;;6184286;23;20017;-83
2022/06/18 02:34:20;;;;;;;8.68;4.78;;;;;;;;;;6184664;23;20048;-84
2022/06/18 02:36:48;;;;;;;7.78;4.78;;;;;;;;;;6184150;23;20066;-83
2022/06/18 02:39:18;;;;;;;8.20;4.78;;;;;;;;;;6183704;23;20030;-83
2022/06/18 02:41:45;;;;;;;10.32;5.25;;;;;;;;;;6183233;23;20025;-83
2022/06/18 02:44:13;;;;;;;14.27;5.03;;;;;;;;;;6184472;23;20014;-85
2022/06/18 02:46:40;;;;;;;11.05;4.97;;;;;;;;;;6183736;23;20018;-83
2022/06/18 02:49:10;;;;;;;12.02;5.20;;;;;;;;;;6183718;23;20026;-84
2022/06/18 02:51:37;;;;;;;9.38;5.05;;;;;;;;;;6182424;23;20060;-83
2022/06/18 02:54:05;;;;;;;12.32;5.40;;;;;;;;;;6185145;23;20012;-83
2022/06/18 02:56:32;;;;;;;12.07;4.95;;;;;;;;;;6184031;23;20073;-83
2022/06/18 02:58:59;;;;;;;14.15;5.07;;;;;;;;;;6184431;23;20009;-82
2022/06/18 03:01:27;;;;;;;10.75;4.82;;;;;;;;;;6184337;23;20029;-83
2022/06/18 03:03:56;;;;;;;9.68;4.97;;;;;;;;;;6184364;23;20018;-84
2022/06/18 03:06:25;;;;;;;9.05;4.65;;;;;;;;;;6183757;23;20034;-83
2022/06/18 03:08:52;;;;;;;12.93;4.80;;;;;;;;;;6184076;23;20053;-83
2022/06/18 03:14:07;;;;;;;21.13;4.90;;;;;;;;;;6183295;23;20029;-82
2022/06/18 03:16:35;;;;;;;11.25;4.70;;;;;;;;;;6182412;23;20018;-83
2022/06/18 03:19:03;;;;;;;8.80;4.18;;;;;;;;;;6182841;23;20050;-83
2022/06/18 03:21:33;;;;;;;14.38;4.70;;;;;;;;;;6183898;23;20716;-83
2022/06/18 03:24:01;;;;;;;12.57;5.20;;;;;;;;;;6183369;23;20026;-84
2022/06/18 03:26:31;;;;;;;14.23;5.70;;;;;;;;;;6183197;23;20025;-83
2022/06/18 03:28:59;;;;;;;9.23;4.78;;;;;;;;;;6182981;23;20006;-83
2022/06/18 03:31:26;;;;;;;17.00;5.35;;;;;;;;;;6183597;23;20018;-83
2022/06/18 03:33:53;;;;;;;11.13;4.90;;;;;;;;;;6185845;23;20010;-85
2022/06/18 03:36:21;;;;;;;15.63;5.70;;;;;;;;;;6185368;23;20235;-84
2022/06/18 03:38:49;;;;;;;11.75;5.60;;;;;;;;;;6181806;23;20025;-83
2022/06/18 03:41:16;;;;;;;12.70;4.97;;;;;;;;;;6181602;23;20030;-83
2022/06/18 03:43:44;;;;;;;12.38;5.40;;;;;;;;;;6182716;23;20030;-83
2022/06/18 03:46:13;;;;;;;12.25;5.15;;;;;;;;;;6182068;23;20438;-82
2022/06/18 03:48:47;;;;;;;13.65;4.95;;;;;;;;;;6182358;23;20014;-83
2022/06/18 03:51:15;;;;;;;12.73;5.78;;;;;;;;;;6182594;23;20033;-84
2022/06/18 03:53:42;;;;;;;11.23;5.82;;;;;;;;;;6181844;23;20020;-82
2022/06/18 03:56:11;;;;;;;12.55;5.43;;;;;;;;;;6182203;23;20081;-83
2022/06/18 03:58:41;;;;;;;9.32;5.47;;;;;;;;;;6181740;23;20109;-83
2022/06/18 04:01:15;;;;;;;8.52;5.35;;;;;;;;;;6181502;23;20022;-83
2022/06/18 04:03:42;;;;;;;13.57;5.15;;;;;;;;;;6182073;23;20014;-83
2022/06/18 04:06:10;;;;;;;9.23;5.10;;;;;;;;;;6181080;23;20081;-83
2022/06/18 04:08:39;;;;;;;14.18;5.80;;;;;;;;;;6179213;23;20014;-83
2022/06/18 04:11:06;;;;;;;16.45;5.43;;;;;;;;;;6181085;23;20424;-82
2022/06/18 04:13:33;;;;;;;13.88;5.95;;;;;;;;;;6181095;23;20018;-83
2022/06/18 04:16:01;;;;;;;14.65;5.45;;;;;;;;;;6180355;23;20018;-83
2022/06/18 04:18:28;;;;;;;14.15;5.68;;;;;;;;;;6181293;23;20194;-83
2022/06/18 04:20:56;;;;;;;10.05;5.43;;;;;;;;;;6180990;23;20054;-82
2022/06/18 04:23:23;;;;;;;10.70;5.07;;;;;;;;;;6180784;23;20006;-83
2022/06/18 04:25:50;;;;;;;15.52;5.82;;;;;;;;;;6180943;23;20057;-83
2022/06/18 04:28:18;;;;;;;12.82;5.85;;;;;;;;;;6179789;23;20034;-82
2022/06/18 04:30:46;;;;;;;14.95;5.68;;;;;;;;;;6180024;23;20014;-84
2022/06/18 04:33:14;;;;;;;13.35;5.43;;;;;;;;;;6179830;23;21042;-83
2022/06/18 04:35:50;;;;;;;11.57;5.40;;;;;;;;;;6180394;23;20037;-82
2022/06/18 04:38:17;;;;;;;13.57;5.53;;;;;;;;;;6180086;23;20014;-83
2022/06/18 04:40:44;;;;;;;14.48;6.80;;;;;;;;;;6179804;23;20025;-83
2022/06/18 04:43:27;;;;;;;11.88;5.90;;;;;;;;;;6185283;23;20012;-84
2022/06/18 04:45:57;;;;;;;14.15;6.22;;;;;;;;;;6184746;23;20014;-83
2022/06/18 04:48:24;;;;;;;9.65;5.68;;;;;;;;;;6178624;23;20851;-82
2022/06/18 04:50:51;;;;;;;10.35;6.50;;;;;;;;;;6180479;23;20014;-83
2022/06/18 04:53:18;;;;;;;13.40;6.13;;;;;;;;;;6178923;23;20073;-83
2022/06/18 04:55:46;;;;;;;15.98;5.80;;;;;;;;;;6178986;23;20065;-83
2022/06/18 04:58:13;;;;;;;14.60;6.18;;;;;;;;;;6179957;23;20523;-82
2022/06/18 05:00:41;;;;;;;13.55;6.55;;;;;;;;;;6180386;23;20050;-84
2022/06/18 05:03:14;;;;;;;12.85;6.72;;;;;;;;;;6179428;23;20014;-84
2022/06/18 05:05:41;;;;;;;11.45;5.47;;;;;;;;;;6179967;23;20038;-85
2022/06/18 05:08:08;;;;;;;13.32;6.70;;;;;;;;;;6180841;23;20081;-84
2022/06/18 05:10:35;;;;;;;13.25;7.00;;;;;;;;;;6180040;23;20372;-84
2022/06/18 05:13:02;;;;;;;14.20;6.35;;;;;;;;;;6180677;23;20042;-84
2022/06/18 05:15:30;;;;;;;20.02;6.47;;;;;;;;;;6178768;23;20025;-83
2022/06/18 05:17:58;;;;;;;15.77;6.15;;;;;;;;;;6181029;23;20038;-83
2022/06/18 05:20:25;;;;;;;16.70;5.97;;;;;;;;;;6180634;23;20042;-83
2022/06/18 05:22:52;;;;;;;17.38;5.57;;;;;;;;;;6180885;23;19998;-84
2022/06/18 05:25:20;;;;;;;17.38;6.22;;;;;;;;;;6181731;23;20047;-82
2022/06/18 05:27:47;;;;;;;14.48;6.00;;;;;;;;;;6181750;23;20011;-84
2022/06/18 05:30:17;;;;;;;20.65;6.53;;;;;;;;;;6181787;23;20018;-84
2022/06/18 05:32:44;;;;;;;16.58;6.22;;;;;;;;;;6180629;23;20034;-84
2022/06/18 05:35:12;;;;;;;15.02;6.40;;;;;;;;;;6180920;23;20034;-82
2022/06/18 05:37:40;;;;;;;16.35;6.72;;;;;;;;;;6181510;23;20029;-84
2022/06/18 05:40:07;;;;;;;17.30;6.32;;;;;;;;;;6181528;23;20133;-83
2022/06/18 05:42:35;;;;;;;21.48;6.47;;;;;;;;;;6181632;23;20014;-83
2022/06/18 05:45:02;;;;;;;18.95;7.28;;;;;;;;;;6179332;23;20078;-83
2022/06/18 05:47:33;;;;;;;18.65;6.28;;;;;;;;;;6180017;23;20070;-83
2022/06/18 05:50:01;;;;;;;19.50;6.40;;;;;;;;;;6181336;23;20033;-84
2022/06/18 05:52:29;;;;;;;16.85;6.22;;;;;;;;;;6180660;23;20050;-83
2022/06/18 05:54:57;;;;;;;19.67;6.32;;;;;;;;;;6182134;23;20028;-83
2022/06/18 05:57:24;;;;;;;15.65;6.32;;;;;;;;;;6180687;23;20025;-83
2022/06/18 05:59:51;;;;;;;13.73;6.38;;;;;;;;;;6182778;23;20050;-83
2022/06/18 06:02:19;;;;;;;20.67;6.50;;;;;;;;;;6182212;23;20029;-84
2022/06/18 06:04:46;;;;;;;15.73;6.03;;;;;;;;;;6182567;23;20026;-83
2022/06/18 06:07:15;;;;;;;16.05;6.05;;;;;;;;;;6184848;23;20025;-84
2022/06/18 06:12:34;;;;;;;23.98;6.93;;;;;;;;;;6178747;23;20033;-83
2022/06/18 06:15:01;;;;;;;14.90;5.60;;;;;;;;;;6159606;23;20030;-83
2022/06/18 06:17:32;;;;;;;15.93;6.35;;;;;;;;;;6159276;23;20026;-83
2022/06/18 06:20:01;;;;;;;15.73;6.93;;;;;;;;;;6159341;23;20018;-83
2022/06/18 06:22:28;;;;;;;20.33;7.20;;;;;;;;;;6170614;23;20780;-83
2022/06/18 06:24:55;;;;;;;14.43;6.30;;;;;;;;;;6174203;23;20026;-82
2022/06/18 06:27:22;;;;;;;20.90;6.78;;;;;;;;;;6174536;23;20025;-83
2022/06/18 06:29:50;;;;;;;15.10;6.03;;;;;;;;;;6172795;23;20018;-82
2022/06/18 06:32:17;;;;;;;13.32;6.15;;;;;;;;;;6173849;23;20038;-83
2022/06/18 06:34:44;;;;;;;18.20;6.57;;;;;;;;;;6173242;23;20898;-82
2022/06/18 06:37:11;;;;;;;19.48;6.50;;;;;;;;;;6173966;23;20743;-81
2022/06/18 06:39:38;;;;;;;18.90;6.28;;;;;;;;;;6173887;23;20066;-81
2022/06/18 06:42:06;;;;;;;15.05;5.93;;;;;;;;;;6174606;23;20017;-82
2022/06/18 06:44:33;;;;;;;15.95;6.28;;;;;;;;;;6179084;23;20018;-82
2022/06/18 06:47:00;;;;;;;15.65;6.18;;;;;;;;;;6177861;23;20014;-81
2022/06/18 06:49:27;;;;;;;16.58;6.05;;;;;;;;;;6177519;23;20018;-81
2022/06/18 06:51:55;;;;;;;14.68;5.80;;;;;;;;;;6176677;23;20053;-82
2022/06/18 06:54:23;;;;;;;20.38;6.07;;;;;;;;;;6175753;23;20021;-82
2022/06/18 06:59:36;;;;;;;19.25;6.18;;;;;;;;;;6174654;23;20070;-81
2022/06/18 07:02:04;;;;;;;15.43;5.85;;;;;;;;;;6174965;23;20101;-82
2022/06/18 07:04:31;;;;;;;19.10;5.97;;;;;;;;;;6172829;23;20026;-81
2022/06/18 07:06:58;;;;;;;14.10;5.65;;;;;;;;;;6173924;23;20014;-82
2022/06/18 07:09:25;;;;;;;21.02;6.07;;;;;;;;;;6176248;23;20074;-83
2022/06/18 07:11:52;;;;;;;19.05;5.68;;;;;;;;;;6179751;23;20006;-84
2022/06/18 07:14:19;;;;;;;19.52;5.85;;;;;;;;;;6181955;23;20097;-82
2022/06/18 07:16:48;;;;;;;17.83;5.15;;;;;;;;;;6181335;23;20033;-83
2022/06/18 07:19:15;;;;;;;16.83;5.32;;;;;;;;;;6182225;23;20006;-82
2022/06/18 07:21:42;;;;;;;18.58;5.63;;;;;;;;;;6178247;23;20065;-83
2022/06/18 07:24:09;;;;;;;18.63;5.95;;;;;;;;;;6178949;23;20105;-82
2022/06/18 07:26:36;;;;;;;23.40;6.38;;;;;;;;;;6176295;23;20029;-83
2022/06/18 07:29:03;;;;;;;18.85;6.00;;;;;;;;;;6177993;23;20508;-82
2022/06/18 07:31:32;;;;;;;15.52;5.85;;;;;;;;;;6177386;23;20014;-82
2022/06/18 07:33:59;;;;;;;14.60;5.85;;;;;;;;;;6177487;23;20018;-83
2022/06/18 07:36:27;;;;;;;17.73;5.53;;;;;;;;;;6177852;23;20029;-81
2022/06/18 07:38:54;;;;;;;17.52;5.68;;;;;;;;;;6177704;23;20026;-81
2022/06/18 07:41:22;;;;;;;15.05;4.88;;;;;;;;;;6177483;23;20113;-82
2022/06/18 07:43:56;;;;;;;17.08;5.25;;;;;;;;;;6177575;23;20976;-81
2022/06/18 07:46:25;;;;;;;20.92;5.55;;;;;;;;;;6177256;23;20010;-81
2022/06/18 07:48:53;;;;;;;15.93;5.32;;;;;;;;;;6176807;23;20053;-80
2022/06/18 07:51:20;;;;;;;15.55;4.88;;;;;;;;;;6175806;23;20054;-81
2022/06/18 07:53:47;;;;;;;14.23;5.35;;;;;;;;;;6177011;23;20022;-82
2022/06/18 07:56:15;;;;;;;16.08;5.60;;;;;;;;;;6180463;23;20106;-82
2022/06/18 07:58:43;;;;;;;19.55;5.05;;;;;;;;;;6178870;23;20009;-81
2022/06/18 08:01:10;;;;;;;27.08;6.28;;;;;;;;;;6176637;23;20060;-81
2022/06/18 08:03:38;;;;;;;30.55;6.38;;;;;;;;;;6178266;23;20846;-81
2022/06/18 08:06:07;;;;;;;23.52;5.20;;;;;;;;;;6179608;23;20006;-82
2022/06/18 08:08:34;;;;;;;16.35;5.45;;;;;;;;;;6180692;23;20042;-81
2022/06/18 08:11:05;;;;;;;18.40;5.88;;;;;;;;;;6178922;23;20021;-82
2022/06/18 08:13:32;;;;;;;17.42;5.60;;;;;;;;;;6177910;23;20033;-81
2022/06/18 08:16:01;;;;;;;16.70;5.00;;;;;;;;;;6177833;23;20064;-82
2022/06/18 08:18:28;;;;;;;16.88;5.70;;;;;;;;;;6176594;23;20088;-81
2022/06/18 08:21:02;;;;;;;23.35;6.25;;;;;;;;;;6175934;23;20017;-82
2022/06/18 08:23:29;;;;;;;24.02;5.88;;;;;;;;;;6177982;23;20014;-81
2022/06/18 08:25:56;;;;;;;19.95;5.97;;;;;;;;;;6178078;23;20018;-81
2022/06/18 08:28:23;;;;;;;15.07;5.70;;;;;;;;;;6173872;23;20018;-81
2022/06/18 08:30:50;;;;;;;19.40;5.75;;;;;;;;;;6170560;23;20014;-81
2022/06/18 08:33:18;;;;;;;22.73;6.53;;;;;;;;;;6170713;23;20153;-80
2022/06/18 08:35:45;;;;;;;25.52;6.00;;;;;;;;;;6180733;23;20006;-80
2022/06/18 08:38:13;;;;;;;19.35;6.57;;;;;;;;;;6178415;23;20108;-81
2022/06/18 08:40:44;;;;;;;19.50;6.22;;;;;;;;;;6177262;23;20096;-81
2022/06/18 08:43:30;;;;;;;28.42;6.82;;;;;;;;;;6179330;23;20048;-80
2022/06/18 08:46:16;;;;;;;13.40;5.28;;;;;;;;;;6179766;23;20026;-80
2022/06/18 08:48:49;;;;;;;19.88;6.40;;;;;;;;;;6178913;23;20070;-81
2022/06/18 08:51:16;;;;;;;18.90;6.20;;;;;;;;;;6180037;23;20014;-80
2022/06/18 08:53:56;;;;;;;15.38;6.13;;;;;;;;;;6182179;23;20030;-82
2022/06/18 08:56:34;;;;;;;16.73;6.47;;;;;;;;;;6180357;23;20719;-82
2022/06/18 08:59:19;;;;;;;18.70;6.63;;;;;;;;;;6180114;23;20026;-81
2022/06/18 09:01:50;;;;;;;19.83;6.78;;;;;;;;;;6179904;23;20082;-81
2022/06/18 09:04:35;;;;;;;26.08;6.55;;;;;;;;;;6180031;23;20021;-82
2022/06/18 09:07:08;;;;;;;19.80;6.47;;;;;;;;;;6181327;23;20002;-82
2022/06/18 09:09:54;;;;;;;19.23;5.97;;;;;;;;;;6180715;23;20010;-81
2022/06/18 09:12:25;;;;;;;18.80;6.03;;;;;;;;;;6182177;23;20014;-81
2022/06/18 09:14:57;;;;;;;15.95;5.25;;;;;;;;;;6183326;23;20083;-81
2022/06/18 09:17:45;;;;;;;21.50;5.95;;;;;;;;;;6184451;23;20039;-82
2022/06/18 09:20:24;;;;;;;21.20;5.22;;;;;;;;;;6186321;23;20017;-82
2022/06/18 09:22:53;;;;;;;21.88;5.90;;;;;;;;;;6180346;23;20041;-81
2022/06/18 09:25:23;;;;;;;20.23;5.38;;;;;;;;;;6177930;23;20114;-82
2022/06/18 09:27:55;;;;;;;16.83;5.90;;;;;;;;;;6179183;23;20044;-81
2022/06/18 09:30:30;;;;;;;20.50;5.70;;;;;;;;;;6179468;23;20941;-81
2022/06/18 09:33:06;;;;;;;15.10;4.90;;;;;;;;;;6179796;23;20038;-81
2022/06/18 09:35:41;;;;;;;20.15;4.60;;;;;;;;;;6182124;23;20101;-80
2022/06/18 09:38:12;;;;;;;14.57;4.80;;;;;;;;;;6179957;23;20022;-80
2022/06/18 09:40:42;;;;;;;13.23;4.32;;;;;;;;;;6180944;23;20025;-81
2022/06/18 09:43:09;;;;;;;15.63;4.90;;;;;;;;;;6175138;23;20065;-84
2022/06/18 09:45:56;;;;;;;16.10;5.68;;;;;;;;;;6176296;23;20866;-83
2022/06/18 09:48:23;;;;;;;15.70;4.97;;;;;;;;;;6179040;23;20030;-80
2022/06/18 09:50:52;;;;;;;16.83;4.95;;;;;;;;;;6176458;23;20018;-81
2022/06/18 09:53:23;;;;;;;13.55;3.95;;;;;;;;;;6180827;23;20006;-80
2022/06/18 09:55:53;;;;;;;12.65;3.90;;;;;;;;;;6179888;23;20048;-81
2022/06/18 09:58:25;;;;;;;18.13;4.97;;;;;;;;;;6177400;23;20014;-81
2022/06/18 10:00:54;;;;;;;12.13;4.25;;;;;;;;;;6177760;23;20221;-81
2022/06/18 10:09:45;;;;;;;14.05;3.55;;;;;;;;;;6181918;23;20014;-80
2022/06/18 10:12:23;;;;;;;12.65;3.40;;;;;;;;;;6174614;23;20026;-84
2022/06/18 10:14:55;;;;;;;9.43;3.10;;;;;;;;;;6183827;23;20018;-80
2022/06/18 10:17:30;;;;;;;13.20;3.05;;;;;;;;;;6182635;23;20022;-81
2022/06/18 10:20:20;;;;;;;9.60;3.22;;;;;;;;;;6183935;23;20010;-80
2022/06/18 10:23:06;;;;;;;14.05;3.60;;;;;;;;;;6179995;23;20025;-80
2022/06/18 10:25:46;;;;;;;15.32;3.58;;;;;;;;;;6179600;23;20070;-80
2022/06/18 10:28:13;;;;;;;14.40;3.38;;;;;;;;;;6181042;23;20031;-83
2022/06/18 10:30:56;;;;;;;12.98;3.75;;;;;;;;;;6178341;23;20878;-82
2022/06/18 10:33:30;;;;;;;18.50;3.67;;;;;;;;;;6178582;23;20018;-82
2022/06/18 10:36:06;;;;;;;11.80;3.55;;;;;;;;;;6180963;23;20083;-80
2022/06/18 10:38:52;;;;;;;9.32;3.63;;;;;;;;;;6178150;23;20014;-81
2022/06/18 10:41:48;;;;;;;14.38;3.30;;;;;;;;;;6173408;23;20059;-82
2022/06/18 10:44:15;;;;;;;11.07;3.25;;;;;;;;;;6166078;23;20030;-83
2022/06/18 10:46:43;;;;;;;13.52;3.40;;;;;;;;;;6180574;23;20018;-81
2022/06/18 10:49:11;;;;;;;14.63;3.42;;;;;;;;;;6180299;23;20022;-81
2022/06/18 10:51:43;;;;;;;8.63;2.85;;;;;;;;;;6180262;23;20006;-81
2022/06/18 10:54:10;;;;;;;9.13;3.13;;;;;;;;;;6179560;23;20038;-81
2022/06/18 10:56:46;;;;;;;8.80;2.95;;;;;;;;;;6180201;23;20341;-81
2022/06/18 10:59:13;;;;;;;11.55;2.45;;;;;;;;;;6181401;23;20018;-82
2022/06/18 11:01:46;;;;;;;8.65;2.83;;;;;;;;;;6183377;23;20059;-82
2022/06/18 11:04:20;;;;;;;13.20;3.63;;;;;;;;;;6182757;23;20017;-80
2022/06/18 11:06:48;;;;;;;9.63;2.70;;;;;;;;;;6180652;23;20082;-82
2022/06/18 11:09:24;;;;;;;9.05;3.08;;;;;;;;;;6180374;23;20081;-80
2022/06/18 11:11:55;;;;;;;10.77;3.00;;;;;;;;;;6180427;23;20030;-82
2022/06/18 11:14:28;;;;;;;13.38;3.03;;;;;;;;;;6180894;23;20002;-81
2022/06/18 11:16:58;;;;;;;7.35;2.50;;;;;;;;;;6181368;23;20018;-80
2022/06/18 11:19:28;;;;;;;9.35;2.85;;;;;;;;;;6183204;23;20026;-80
2022/06/18 11:21:55;;;;;;;15.48;2.95;;;;;;;;;;6183186;23;20021;-83
2022/06/18 11:24:28;;;;;;;9.50;2.92;;;;;;;;;;6181889;23;20022;-81
2022/06/18 11:26:57;;;;;;;13.30;2.97;;;;;;;;;;6180727;23;20018;-82
2022/06/18 11:29:33;;;;;;;10.82;2.67;;;;;;;;;;6181426;23;20228;-80
2022/06/18 11:32:02;;;;;;;9.88;3.38;;;;;;;;;;6180247;23;20026;-82
2022/06/18 11:34:34;;;;;;;12.80;3.75;;;;;;;;;;6180819;23;20062;-81
2022/06/18 11:37:11;;;;;;;14.02;3.50;;;;;;;;;;6183582;23;20017;-80
2022/06/18 11:39:41;;;;;;;11.90;3.15;;;;;;;;;;6181732;23;20078;-82
2022/06/18 11:42:22;;;;;;;13.80;3.20;;;;;;;;;;6180401;23;20070;-81
2022/06/18 11:44:51;;;;;;;;;;;;;;;;;;6182912;23;20029;-81
2022/06/18 11:47:24;;;;;;;11.80;3.08;;;;;;;;;;6177149;23;43963;-80
2022/06/18 11:50:01;;;;;;;10.45;2.35;;;;;;;;;;6147982;23;20084;-81
2022/06/18 11:52:28;;;;;;;9.82;3.05;;;;;;;;;;6149596;23;20070;-80
2022/06/18 11:54:58;;;;;;;13.30;3.03;;;;;;;;;;6150356;23;20026;-81
2022/06/18 11:57:30;;;;;;;7.82;3.08;;;;;;;;;;6149178;23;20022;-80
2022/06/18 12:00:06;;;;;;;12.32;3.50;;;;;;;;;;6152464;23;20029;-81
2022/06/18 12:02:53;;;;;;;14.27;3.10;;;;;;;;;;6156415;23;20002;-81
2022/06/18 12:05:26;;;;;;;11.60;3.28;;;;;;;;;;6123265;23;20043;-82
2022/06/18 12:07:55;;;;;;;16.20;3.40;;;;;;;;;;6146295;23;20033;-82
2022/06/18 12:10:28;;;;;;;9.65;3.17;;;;;;;;;;6150874;23;20011;-82
2022/06/18 12:13:12;;;;;;;13.18;3.10;;;;;;;;;;6156102;23;20050;-82
2022/06/18 12:15:48;;;;;;;10.10;2.67;;;;;;;;;;6156228;23;20510;-82
2022/06/18 12:18:22;;;;;;;10.60;3.03;;;;;;;;;;6154795;23;20001;-84
2022/06/18 12:20:52;;;;;;;11.43;3.05;;;;;;;;;;6155338;23;20022;-84
2022/06/18 12:23:41;;;;;;;7.38;2.60;;;;;;;;;;6155060;23;20015;-84
2022/06/18 12:26:28;;;;;;;10.05;2.78;;;;;;;;;;6155563;23;20018;-84
2022/06/18 12:29:14;;;;;;;9.05;2.70;;;;;;;;;;6081400;23;20011;-83
2022/06/18 12:31:52;;;;;;;11.38;2.75;;;;;;;;;;6154165;23;20025;-84
2022/06/18 12:34:38;;;;;;;8.20;2.67;;;;;;;;;;6153568;23;20013;-83
2022/06/18 12:37:24;;;;;;;10.38;2.92;;;;;;;;;;6154170;23;20058;-82
2022/06/18 12:40:01;;;;;;;6.43;2.40;;;;;;;;;;6154266;23;20021;-83
2022/06/18 12:42:31;;;;;;;7.82;2.60;;;;;;;;;;6154033;23;20006;-84
2022/06/18 12:45:28;;;;;;;9.88;2.47;;;;;;;;;;6130864;23;20034;-84
2022/06/18 12:48:16;;;;;;;6.05;2.50;;;;;;;;;;6153811;23;20019;-83
2022/06/18 12:50:49;;;;;;;;;;;;;;;;;;6183101;23;20018;-84
2022/06/18 12:53:18;;;;;;;8.88;2.38;;;;;;;;;;6151089;23;45556;-82
2022/06/18 12:56:07;;;;;;;7.20;2.30;;;;;;;;;;6182397;23;20089;-84
2022/06/18 12:58:53;;;;;;;10.45;2.42;;;;;;;;;;6160917;23;20028;-84
2022/06/18 13:01:24;;;;;;;11.70;2.42;;;;;;;;;;6185622;23;20014;-83
2022/06/18 13:04:05;;;;;;;6.28;2.50;;;;;;;;;;6183231;23;20013;-83
2022/06/18 13:06:43;;;;;;;7.57;2.03;;;;;;;;;;6184097;23;20010;-84
2022/06/18 13:09:18;;;;;;;4.97;1.80;;;;;;;;;;6185168;23;20032;-84
2022/06/18 13:11:52;;;;;;;7.10;2.20;;;;;;;;;;6160442;23;20029;-84
2022/06/18 13:14:19;;;;;;;10.20;2.00;;;;;;;;;;6184425;23;20018;-84
2022/06/18 13:16:48;;;;;;;9.25;1.80;;;;;;;;;;6182308;23;20101;-84
2022/06/18 13:19:34;;;;;;;6.80;1.90;;;;;;;;;;6183171;23;20077;-83
2022/06/18 13:22:05;;;;;;;8.02;1.88;;;;;;;;;;6157828;23;20014;-84
2022/06/18 13:30:26;;;;;;;8.43;1.75;;;;;;;;;;6181677;23;20048;-83
2022/06/18 13:33:00;;;;;;;8.50;2.00;;;;;;;;;;6180949;23;20022;-84
2022/06/18 13:35:37;;;;;;;9.40;2.03;;;;;;;;;;6180393;23;20025;-83
2022/06/18 13:38:17;;;;;;;6.30;1.70;;;;;;;;;;6156722;23;20002;-83
2022/06/18 13:40:50;;;;;;;6.38;1.67;;;;;;;;;;6184075;23;20009;-84
2022/06/18 13:43:31;;;;;;;11.32;1.80;;;;;;;;;;6182427;23;20021;-83
2022/06/18 13:46:10;;;;;;;4.57;1.70;;;;;;;;;;6183269;23;20026;-83
2022/06/18 13:49:03;;;;;;;8.95;1.60;;;;;;;;;;6165654;23;20018;-85
2022/06/18 13:51:34;;;;;;;4.25;1.80;;;;;;;;;;6182053;23;20026;-82
2022/06/18 13:54:16;;;;;;;9.35;2.08;;;;;;;;;;6180344;23;20019;-84
2022/06/18 13:56:55;;;;;;;7.88;1.70;;;;;;;;;;6181826;23;19999;-83
2022/06/18 13:59:41;;;;;;;5.60;1.67;;;;;;;;;;6163503;23;20069;-84
2022/06/18 14:02:35;;;;;;;4.28;1.70;;;;;;;;;;6180327;23;20438;-84
2022/06/18 14:05:08;;;;;;;6.78;1.80;;;;;;;;;;6181193;23;20018;-83
2022/06/18 14:07:49;;;;;;;5.88;1.75;;;;;;;;;;6180507;23;20014;-84
2022/06/18 14:10:21;;;;;;;6.38;1.77;;;;;;;;;;6180590;23;20034;-84
2022/06/18 14:12:54;;;;;;;6.87;1.93;;;;;;;;;;6182742;23;20018;-84
2022/06/18 14:15:30;;;;;;;5.70;1.73;;;;;;;;;;6181029;23;20171;-84
2022/06/18 14:18:03;;;;;;;5.45;2.00;;;;;;;;;;6182495;23;20026;-84
2022/06/18 14:20:44;;;;;;;3.78;1.55;;;;;;;;;;6182110;23;20029;-84
2022/06/18 14:23:36;;;;;;;5.57;1.80;;;;;;;;;;6180512;23;20018;-85
2022/06/18 14:26:06;;;;;;;6.60;1.85;;;;;;;;;;6181147;23;20014;-83
2022/06/18 14:28:56;;;;;;;4.60;1.50;;;;;;;;;;6177180;23;20365;-82
2022/06/18 14:32:03;;;;;;;7.45;1.63;;;;;;;;;;6177996;23;20008;-82
2022/06/18 14:34:33;;;;;;;3.80;1.50;;;;;;;;;;6176143;23;20043;-83
2022/06/18 14:37:10;;;;;;;7.75;1.92;;;;;;;;;;6174079;23;20026;-82
2022/06/18 14:39:47;;;;;;;11.43;1.98;;;;;;;;;;6178290;23;20018;-83
2022/06/18 14:42:40;;;;;;;8.60;1.80;;;;;;;;;;6176172;23;20037;-83
2022/06/18 14:45:25;;;;;;;9.70;1.80;;;;;;;;;;6169830;23;20046;-82
2022/06/18 14:48:18;;;;;;;8.43;2.00;;;;;;;;;;6179685;23;20002;-83
2022/06/18 14:50:56;;;;;;;4.50;1.70;;;;;;;;;;6176644;23;20025;-82
2022/06/18 14:53:42;;;;;;;2.38;1.33;;;;;;;;;;6177309;23;20109;-83
2022/06/18 14:56:17;;;;;;;4.80;1.40;;;;;;;;;;6176153;23;20046;-81
2022/06/18 14:58:47;;;;;;;6.43;1.70;;;;;;;;;;6178075;23;20068;-81
2022/06/18 15:01:14;;;;;;;4.20;1.60;;;;;;;;;;6175785;23;20042;-82
2022/06/18 15:03:46;;;;;;;3.67;1.80;;;;;;;;;;6170543;23;20023;-82
2022/06/18 15:06:19;;;;;;;6.65;1.83;;;;;;;;;;6172319;23;20018;-83
2022/06/18 15:08:52;;;;;;;3.72;1.55;;;;;;;;;;6176224;23;20030;-82
2022/06/18 15:11:22;;;;;;;5.57;1.83;;;;;;;;;;6174195;23;20848;-83
2022/06/18 15:13:53;;;;;;;5.03;1.80;;;;;;;;;;6171533;23;20086;-82
2022/06/18 15:22:00;;;;;;;8.15;2.28;;;;;;;;;;6183859;23;20026;-83
2022/06/18 15:27:35;;;;;;;6.22;1.80;;;;;;;;;;6181062;23;20887;-83
2022/06/18 15:30:04;;;;;;;9.73;2.00;;;;;;;;;;6179431;23;20077;-82
2022/06/18 15:32:33;;;;;;;7.30;2.13;;;;;;;;;;6178696;23;20014;-82
2022/06/18 15:35:06;;;;;;;5.93;2.22;;;;;;;;;;6176092;23;20010;-81
2022/06/18 15:37:44;;;;;;;5.95;2.30;;;;;;;;;;6180521;23;20025;-81